Aérodrome :
LOGIN :

S'inscrire | Disclaimer

   EN    FR    IT 

 










Légende :    VFR   VFR Marginal   IFR   IFR Intensif   IFR Très Intensif
Visi : 
Plafond : 
>= 8 km
>= 3000ft
5 à 8 km
1000 à 3000 ft
1500m à 5 km
500 à 1000 ft
800 à 1500m
200 à 500 ft
< 800m
< 200 ft
Symboles :   Orages  Brouillard  Fortes neiges  Fortes précipitations  Vent > 20 kt
SIGMETs :   Divers  Orages  Givrage  Turbulence  Onde Orograph.  Cendres Volcan.






- Altitude de l'aérodrome : 156 ft
- Code IATA : MLN


GEML - Melilla

DERNIER METAR :
  • 241200Z 07005KT 020V130 9999 FEW016 18/12 Q1028

METARs EXPIRÉS :
  • 241130Z 05006KT 9999 FEW016 18/12 Q1028
  • 241100Z 32004KT 280V010 9999 FEW016 18/11 Q1029
  • 241030Z VRB03KT 9999 FEW016 17/11 Q1029
  • 241000Z 25004KT 150V300 9999 FEW016 16/11 Q1029
  • 240930Z 27004KT 200V350 9999 BKN016 16/11 Q1030

TAF TAF GEML
Valide du 24 à 09h jusqu'au 25 à 09h UTC


240800Z 2409/2509 27004KT 9999 FEW010 SCT014 TX19/2413Z TN12/2507Z
TEMPO 2409/2411 BKN012



MET'MAP, la Météo Aéronautique d'un coup d'oeil ! - Copyright ORBIFLY Décembre 2007 - Disclaimer

ORBIFLY MET'MAP TEAM :

Programmation & Développement : Alexandra Zaïnal
Sur une idée originale de : Baudouin d'Aumeries
Assistance à la programmation : Marc-Olivier Méhu
Soutien technique & logistique : Manuel Goepfert

Contact : metmap@orbifly.com




SOURCES & CREDITS :

   NOAA